NCAR-RAP Real-Time Weather Data

Output produced by METARs form (19 June 2019  10:56 UTC)
found at http://weather.rap.ucar.edu/surface/
 
KMSP 191053Z 35003KT 10SM FEW250 14/12 A2985 RMK AO2 SLP106 T01440117
KMSP 190953Z 00000KT 10SM FEW250 14/13 A2986 RMK AO2 SLP111 T01440128
KMSP 190853Z 00000KT 10SM CLR 15/12 A2986 RMK AO2 SLP109 T01500122 56012
KMSP 190753Z 34003KT 10SM CLR 15/12 A2988 RMK AO2 SLP115 T01500122
KMSP 190653Z 00000KT 10SM FEW250 17/12 A2989 RMK AO2 SLP117 T01670122
KMSP 190553Z 00000KT 10SM SCT250 17/13 A2990 RMK AO2 SLP122 T01670133 10233 20167 402390128 50003
KMSP 190453Z 00000KT 10SM SCT250 18/12 A2990 RMK AO2 SLP123 T01780117
KMSP 190353Z 32003KT 10SM BKN250 19/12 A2990 RMK AO2 SLP122 T01890122
KMSP 190253Z 00000KT 10SM FEW050 BKN250 21/11 A2989 RMK AO2 SLP119 T02060106 53001
KMSP 190153Z 32005KT 10SM FEW050 BKN250 21/10 A2988 RMK AO2 SLP117 T02110100
KMSP 190053Z 33005KT 10SM FEW050 BKN250 22/10 A2989 RMK AO2 SLP119 T02220100
KMSP 182353Z 32004KT 10SM FEW060 FEW080 BKN250 23/09 A2989 RMK AO2 SLP118 T02280094 10239 20222 56010
KMSP 182253Z VRB04KT 10SM FEW060 SCT080 BKN250 24/10 A2989 RMK AO2 SLP120 T02390100
KMSP 182153Z 31006KT 10SM FEW050 SCT080 BKN250 23/09 A2991 RMK AO2 SLP125 T02330094
KMSP 182053Z 34007KT 10SM FEW045 BKN075 BKN250 23/09 A2992 RMK AO2 SLP129 T02330094 58010
KMSP 181953Z 32006KT 10SM FEW045 BKN075 22/09 A2993 RMK AO2 SLP133 T02220094
KMSP 181853Z 31008KT 10SM FEW050 BKN070 BKN250 22/10 A2994 RMK AO2 SLP138 T02220100
KMSP 181753Z 31008KT 10SM BKN060 BKN250 23/10 A2995 RMK AO2 SLP138 T02330100 10233 20156 57011
KMSP 181653Z 27006G15KT 10SM FEW045 BKN055 BKN250 23/11 A2996 RMK AO2 SLP142 T02280106
KMSP 181553Z 31007KT 10SM FEW038 SCT250 22/11 A2997 RMK AO2 SLP147 T02220111